createdAt,value
2017-07-21T00:00:33.504Z,91.74
2017-07-21T00:01:14.383Z,91.74
2017-07-21T00:01:55.271Z,91.74
2017-07-21T00:02:36.179Z,91.93
2017-07-21T00:03:17.060Z,91.74
2017-07-21T00:03:57.947Z,91.54
2017-07-21T00:04:38.869Z,91.83
2017-07-21T00:05:19.761Z,92.5
2017-07-21T00:06:00.674Z,91.93
2017-07-21T00:06:41.575Z,91.44
2017-07-21T00:07:22.469Z,92.5
2017-07-21T00:08:03.365Z,92.32
2017-07-21T00:08:44.256Z,92.22
2017-07-21T00:09:25.140Z,92.12
2017-07-21T00:10:06.028Z,92.6
2017-07-21T00:10:46.923Z,92.32
2017-07-21T00:11:27.822Z,92.12
2017-07-21T00:12:08.714Z,92.41
2017-07-21T00:12:49.606Z,92.12
2017-07-21T00:13:30.509Z,92.12
2017-07-21T00:14:11.401Z,92.12
2017-07-21T00:14:52.288Z,92.41
2017-07-21T00:15:33.182Z,92.02
2017-07-21T00:16:14.076Z,92.17
2017-07-21T00:16:54.962Z,92.08
2017-07-21T00:17:35.871Z,92.27
2017-07-21T00:18:16.755Z,91.69
2017-07-21T00:18:57.647Z,92.17
2017-07-21T00:19:38.544Z,91.69
2017-07-21T00:20:19.431Z,91.69
2017-07-21T00:21:00.352Z,91.98
2017-07-21T00:21:41.245Z,92.08
2017-07-21T00:22:22.135Z,91.69
2017-07-21T00:23:03.039Z,91.69
2017-07-21T00:23:43.925Z,91.78
2017-07-21T00:24:24.818Z,92.08
2017-07-21T00:25:05.772Z,91.88
2017-07-21T00:25:46.628Z,92.17
2017-07-21T00:26:27.517Z,91.6
2017-07-21T00:27:08.416Z,91.78
2017-07-21T00:27:49.301Z,91.98
2017-07-21T00:28:30.205Z,91.88
2017-07-21T00:29:11.095Z,91.69
2017-07-21T00:29:51.983Z,92.08
2017-07-21T00:30:32.879Z,91.98
2017-07-21T00:31:13.770Z,91.98
2017-07-21T00:31:54.662Z,91.69
2017-07-21T00:32:35.546Z,92.17
2017-07-21T00:33:16.441Z,91.69
2017-07-21T00:33:57.334Z,91.98
2017-07-21T00:34:38.233Z,91.98
2017-07-21T00:35:19.123Z,92.56
2017-07-21T00:36:00.011Z,91.98
2017-07-21T00:36:40.903Z,91.69
2017-07-21T00:37:21.798Z,92.08
2017-07-21T00:38:02.704Z,92.36
2017-07-21T00:38:43.605Z,92.08
2017-07-21T00:39:24.477Z,92.08
2017-07-21T00:40:05.356Z,92.32
2017-07-21T00:40:46.282Z,92.17
2017-07-21T00:41:27.181Z,91.78
2017-07-21T00:42:08.068Z,92.32
2017-07-21T00:42:48.956Z,92.13
2017-07-21T00:43:29.836Z,92.36
2017-07-21T00:44:10.734Z,92.03
2017-07-21T00:44:51.620Z,92.03
2017-07-21T00:46:50.469Z,91.93
2017-07-21T00:47:31.365Z,91.88
2017-07-21T00:48:12.259Z,92.13
2017-07-21T00:48:53.160Z,91.88
2017-07-21T00:49:34.055Z,92.03
2017-07-21T00:50:14.953Z,92.03
2017-07-21T00:50:55.855Z,92.41
2017-07-21T00:51:36.750Z,92.03
2017-07-21T00:52:17.645Z,92.32
2017-07-21T00:52:58.556Z,92.32
2017-07-21T00:53:39.445Z,91.83
2017-07-21T00:54:20.356Z,92.32
2017-07-21T00:55:01.245Z,92.22
2017-07-21T00:55:42.137Z,91.64
2017-07-21T00:56:23.033Z,91.74
2017-07-21T00:57:03.923Z,92.32
2017-07-21T00:57:44.814Z,92.13
2017-07-21T00:58:25.714Z,92.22
2017-07-21T00:59:06.606Z,92.03
2017-07-21T00:59:47.501Z,91.74
2017-07-21T01:00:28.399Z,92.32
2017-07-21T01:01:09.291Z,92.22
2017-07-21T01:01:50.192Z,92.03
2017-07-21T01:02:31.084Z,91.74
2017-07-21T01:03:11.978Z,92.41
2017-07-21T01:03:52.873Z,92.03
2017-07-21T01:04:33.770Z,92.03
2017-07-21T01:05:14.663Z,92.03
2017-07-21T01:05:55.559Z,91.45
2017-07-21T01:06:36.448Z,92.03
2017-07-21T01:07:17.358Z,92.22
2017-07-21T01:07:58.259Z,92.22
2017-07-21T01:08:39.126Z,91.45
2017-07-21T01:09:20.022Z,92.03
2017-07-21T01:10:00.931Z,92.13
2017-07-21T01:10:41.865Z,92.32
2017-07-21T01:11:22.751Z,92.22
2017-07-21T01:12:03.641Z,92.03
2017-07-21T01:12:44.532Z,91.83
2017-07-21T01:13:25.425Z,92.22
2017-07-21T01:14:06.335Z,92.22
2017-07-21T01:14:47.224Z,91.55
2017-07-21T01:15:28.127Z,92.32
2017-07-21T01:16:09.024Z,92.13
2017-07-21T01:16:49.920Z,92.03
2017-07-21T01:17:30.808Z,92.22
2017-07-21T01:18:11.698Z,91.83
2017-07-21T01:18:52.657Z,92.03
2017-07-21T01:19:33.536Z,92.22
2017-07-21T01:20:14.446Z,92.03
2017-07-21T01:20:55.348Z,92.32
2017-07-21T01:21:36.230Z,92.41
2017-07-21T01:22:17.124Z,92.03
2017-07-21T01:22:58.025Z,92.22
2017-07-21T01:23:38.912Z,92.03
2017-07-21T01:24:19.796Z,92.22
2017-07-21T01:25:00.689Z,92.03
2017-07-21T01:25:41.570Z,92.13
2017-07-21T01:26:22.461Z,92.03
2017-07-21T01:27:03.395Z,91.93
2017-07-21T01:27:44.273Z,92.22
2017-07-21T01:28:25.165Z,92.22
2017-07-21T01:29:06.063Z,92.32
2017-07-21T01:29:46.963Z,92.51
2017-07-21T01:30:27.857Z,92.13
2017-07-21T01:31:08.746Z,92.13
2017-07-21T01:31:49.649Z,92.03
2017-07-21T01:32:30.547Z,92.22
2017-07-21T01:33:11.426Z,92.22
2017-07-21T01:33:52.320Z,92.32
2017-07-21T01:34:33.211Z,92.32
2017-07-21T01:35:14.110Z,92.03
2017-07-21T01:35:54.998Z,92.22
2017-07-21T01:36:35.898Z,92.13
2017-07-21T01:37:16.791Z,92.13
2017-07-21T01:37:57.677Z,92.22
2017-07-21T01:38:38.583Z,92.32
2017-07-21T01:39:19.476Z,92.41
2017-07-21T01:40:00.380Z,92.32
2017-07-21T01:40:41.272Z,92.41
2017-07-21T01:41:22.167Z,92.22
2017-07-21T01:42:03.069Z,92.51
2017-07-21T01:42:43.955Z,92.32
2017-07-21T01:43:24.850Z,92.51
2017-07-21T01:44:05.748Z,92.03
2017-07-21T01:44:46.632Z,92.41
2017-07-21T01:45:27.524Z,92.22
2017-07-21T01:46:08.424Z,92.61
2017-07-21T01:46:49.313Z,92.03
2017-07-21T01:47:30.206Z,92.41
2017-07-21T01:48:11.102Z,92.22
2017-07-21T01:48:51.996Z,92.32
2017-07-21T01:49:33.640Z,92.71
2017-07-21T01:50:14.550Z,92.22
2017-07-21T01:50:55.450Z,92.71
2017-07-21T01:51:36.343Z,92.71
2017-07-21T01:52:17.239Z,92.51
2017-07-21T01:52:58.135Z,92.32
2017-07-21T01:53:39.022Z,92.41
2017-07-21T01:54:19.920Z,92.32
2017-07-21T01:55:00.807Z,92.41
2017-07-21T01:55:41.712Z,92.03
2017-07-21T01:56:22.604Z,92.61
2017-07-21T01:57:03.500Z,92.61
2017-07-21T01:57:44.412Z,92.32
2017-07-21T01:58:25.303Z,92.22
2017-07-21T01:59:06.217Z,92.22
2017-07-21T01:59:47.118Z,91.93
2017-07-21T02:00:28.009Z,92.61
2017-07-21T02:01:08.910Z,92.22
2017-07-21T02:01:49.797Z,91.99
2017-07-21T02:02:30.688Z,91.99
2017-07-21T02:03:11.586Z,92.47
2017-07-21T02:03:52.482Z,92.27
2017-07-21T02:04:33.378Z,92.61
2017-07-21T02:05:14.276Z,92.37
2017-07-21T02:05:55.168Z,92.66
2017-07-21T02:06:36.068Z,92.18
2017-07-21T02:07:16.975Z,92.08
2017-07-21T02:07:57.871Z,92.56
2017-07-21T02:08:38.766Z,92.8
2017-07-21T02:09:19.662Z,92.08
2017-07-21T02:10:00.563Z,92.08
2017-07-21T02:10:41.460Z,92.27
2017-07-21T02:11:22.350Z,92.27
2017-07-21T02:12:03.249Z,92.56
2017-07-21T02:12:44.136Z,92.27
2017-07-21T02:13:25.034Z,92.37
2017-07-21T02:14:05.937Z,92.27
2017-07-21T02:14:46.826Z,91.99
2017-07-21T02:15:27.721Z,92.08
2017-07-21T02:16:08.628Z,92.27
2017-07-21T02:16:49.531Z,92.27
2017-07-21T02:17:30.406Z,92.27
2017-07-21T02:18:11.297Z,91.79
2017-07-21T02:18:52.187Z,91.89
2017-07-21T02:19:33.087Z,92.37
2017-07-21T02:20:13.983Z,92.27
2017-07-21T02:20:54.878Z,91.89
2017-07-21T02:21:35.779Z,92.37
2017-07-21T02:22:16.668Z,92.76
2017-07-21T02:22:57.570Z,92.37
2017-07-21T02:23:38.465Z,92.76
2017-07-21T02:24:19.355Z,92.85
2017-07-21T02:25:00.247Z,91.79
2017-07-21T02:25:41.141Z,92.08
2017-07-21T02:26:22.031Z,92.37
2017-07-21T02:27:02.925Z,92.27
2017-07-21T02:27:43.817Z,92.76
2017-07-21T02:28:24.707Z,92.56
2017-07-21T02:29:05.597Z,92.76
2017-07-21T02:29:46.494Z,91.99
2017-07-21T02:30:27.382Z,91.99
2017-07-21T02:31:08.277Z,92.18
2017-07-21T02:31:49.160Z,92.47
2017-07-21T02:32:30.057Z,92.47
2017-07-21T02:33:10.944Z,92.76
2017-07-21T02:33:51.843Z,91.99
2017-07-21T02:34:32.727Z,91.79
2017-07-21T02:35:13.627Z,92.47
2017-07-21T02:35:54.521Z,91.65
2017-07-21T02:36:35.402Z,92.13
2017-07-21T02:37:16.300Z,92.32
2017-07-21T02:37:57.193Z,92.32
2017-07-21T02:38:38.084Z,91.75
2017-07-21T02:39:18.977Z,91.84
2017-07-21T02:39:59.871Z,91.75
2017-07-21T02:40:40.760Z,91.94
2017-07-21T02:41:21.660Z,92.71
2017-07-21T02:42:02.551Z,92.42
2017-07-21T02:42:43.439Z,91.84
2017-07-21T02:43:24.328Z,91.94
2017-07-21T02:44:05.227Z,92.42
2017-07-21T02:44:46.112Z,91.46
2017-07-21T02:45:27.020Z,91.75
2017-07-21T02:46:07.907Z,92.22
2017-07-21T02:46:48.787Z,92.22
2017-07-21T02:47:29.698Z,92.52
2017-07-21T02:48:10.614Z,92.8
2017-07-21T02:48:51.495Z,92.42
2017-07-21T02:49:32.400Z,92.71
2017-07-21T02:50:13.284Z,92.71
2017-07-21T02:50:54.185Z,92.61
2017-07-21T02:51:35.079Z,92.42
2017-07-21T02:52:15.958Z,92.71
2017-07-21T02:52:56.860Z,91.75
2017-07-21T02:53:37.748Z,92.61
2017-07-21T02:54:18.645Z,92.42
2017-07-21T02:54:59.555Z,92.42
2017-07-21T02:55:40.442Z,91.94
2017-07-21T02:56:21.332Z,92.03
2017-07-21T02:57:02.238Z,92.61
2017-07-21T02:57:43.127Z,92.22
2017-07-21T02:58:24.015Z,92.42
2017-07-21T02:59:04.918Z,92.52
2017-07-21T02:59:45.806Z,92.03
2017-07-21T03:00:26.699Z,92.03
2017-07-21T03:01:07.598Z,92.52
2017-07-21T03:01:48.488Z,92.52
2017-07-21T03:02:29.387Z,92.42
2017-07-21T03:03:10.277Z,92.61
2017-07-21T03:03:51.182Z,92.61
2017-07-21T03:04:32.089Z,92.22
2017-07-21T03:05:12.979Z,92.61
2017-07-21T03:05:53.880Z,92.52
2017-07-21T03:06:34.774Z,92.13
2017-07-21T03:07:15.669Z,92.61
2017-07-21T03:07:56.559Z,92.22
2017-07-21T03:08:37.452Z,92.52
2017-07-21T03:09:18.353Z,92.32
2017-07-21T03:09:59.247Z,92.42
2017-07-21T03:10:40.143Z,92.9
2017-07-21T03:11:21.048Z,92.52
2017-07-21T03:12:01.941Z,92.52
2017-07-21T03:12:42.833Z,92.52
2017-07-21T03:13:23.730Z,92.32
2017-07-21T03:14:04.622Z,92.42
2017-07-21T03:14:45.519Z,91.94
2017-07-21T03:15:26.424Z,92.32
2017-07-21T03:16:07.312Z,92.03
2017-07-21T03:16:48.210Z,92.13
2017-07-21T03:17:29.100Z,91.94
2017-07-21T03:18:09.999Z,92.61
2017-07-21T03:18:50.898Z,92.52
2017-07-21T03:19:31.801Z,92.42
2017-07-21T03:20:12.689Z,91.94
2017-07-21T03:20:53.582Z,91.94
2017-07-21T03:21:34.468Z,92.32
2017-07-21T03:22:15.355Z,92.61
2017-07-21T03:22:56.247Z,92.71
2017-07-21T03:23:37.172Z,92.52
2017-07-21T03:24:18.070Z,92.52
2017-07-21T03:24:58.959Z,92.52
2017-07-21T03:25:39.847Z,92.22
2017-07-21T03:26:20.737Z,92.22
2017-07-21T03:27:01.636Z,92.32
2017-07-21T03:27:42.520Z,92.32
2017-07-21T03:28:23.409Z,92.32
2017-07-21T03:29:04.296Z,92.9
2017-07-21T03:29:45.186Z,92.9
2017-07-21T03:30:26.092Z,92.47
2017-07-21T03:31:06.994Z,92.71
2017-07-21T03:31:47.880Z,93
2017-07-21T03:32:30.396Z,92.76
2017-07-21T03:33:11.274Z,92.94
2017-07-21T03:33:52.159Z,93.43
2017-07-21T03:34:33.053Z,93.52
2017-07-21T03:35:13.955Z,92.66
2017-07-21T03:35:54.836Z,93.14
2017-07-21T03:36:35.752Z,93.24
2017-07-21T03:37:16.636Z,92.85
2017-07-21T03:37:57.541Z,93.14
2017-07-21T03:38:38.429Z,93.33
2017-07-21T03:39:19.317Z,92.94
2017-07-21T03:40:00.204Z,93.24
2017-07-21T03:40:41.083Z,93.04
2017-07-21T03:41:21.987Z,93.14
2017-07-21T03:42:02.872Z,92.94
2017-07-21T03:42:43.758Z,92.94
2017-07-21T03:43:24.662Z,93.62
2017-07-21T03:44:05.540Z,93.43
2017-07-21T03:44:46.423Z,93.43
2017-07-21T03:45:27.313Z,93.33
2017-07-21T03:46:08.202Z,92.56
2017-07-21T03:46:49.088Z,93.14
2017-07-21T03:47:29.990Z,92.85
2017-07-21T03:48:10.890Z,92.85
2017-07-21T03:48:51.781Z,93.52
2017-07-21T03:49:32.678Z,93.33
2017-07-21T03:50:13.568Z,92.85
2017-07-21T03:50:54.457Z,93.43
2017-07-21T03:51:35.352Z,92.94
2017-07-21T03:52:16.248Z,93.14
2017-07-21T03:52:57.149Z,92.85
2017-07-21T03:53:38.039Z,93.43
2017-07-21T03:54:18.925Z,92.94
2017-07-21T03:54:59.832Z,93.04
2017-07-21T03:55:40.721Z,93.24
2017-07-21T03:56:21.656Z,93.29
2017-07-21T03:57:02.559Z,93.62
2017-07-21T03:57:43.449Z,93.62
2017-07-21T03:58:24.351Z,93.72
2017-07-21T03:59:05.239Z,93.72
2017-07-21T03:59:46.144Z,93.62
2017-07-21T04:00:27.040Z,93.43
2017-07-21T04:01:07.941Z,93.14
2017-07-21T04:01:48.851Z,93.62
2017-07-21T04:02:29.757Z,93.24
2017-07-21T04:03:10.651Z,93.24
2017-07-21T04:03:51.546Z,93.24
2017-07-21T04:04:32.436Z,93.24
2017-07-21T04:05:13.337Z,93.14
2017-07-21T04:05:54.227Z,93.04
2017-07-21T04:06:35.115Z,93.14
2017-07-21T04:07:16.011Z,93.14
2017-07-21T04:07:56.900Z,93.24
2017-07-21T04:08:37.792Z,93.04
2017-07-21T04:09:18.694Z,93.24
2017-07-21T04:09:59.591Z,93.24
2017-07-21T04:10:40.488Z,93.14
2017-07-21T04:11:21.385Z,93.04
2017-07-21T04:12:02.283Z,93.14
2017-07-21T04:12:43.205Z,93.24
2017-07-21T04:13:24.072Z,93.24
2017-07-21T04:14:04.981Z,93.14
2017-07-21T04:14:45.874Z,93.43
2017-07-21T04:15:26.794Z,93.33
2017-07-21T04:16:07.681Z,93.52
2017-07-21T04:16:48.581Z,93.04
2017-07-21T04:18:42.218Z,93.52
2017-07-21T04:19:23.107Z,93.33
2017-07-21T04:20:04.005Z,93.04
2017-07-21T04:20:44.940Z,93.33
2017-07-21T04:21:25.836Z,93.04
2017-07-21T04:22:06.722Z,93.24
2017-07-21T04:22:47.612Z,93.52
2017-07-21T04:23:28.511Z,93.14
2017-07-21T04:24:09.398Z,93.04
2017-07-21T04:24:50.292Z,93.24
2017-07-21T04:25:31.191Z,92.66
2017-07-21T04:26:12.078Z,92.76
2017-07-21T04:26:52.968Z,93.43
2017-07-21T04:27:33.859Z,93.14
2017-07-21T04:28:14.758Z,93.24
2017-07-21T04:28:55.655Z,92.66
2017-07-21T04:29:36.546Z,92.94
2017-07-21T04:30:17.432Z,92.85
2017-07-21T04:30:58.330Z,93.14
2017-07-21T04:31:39.219Z,93.04
2017-07-21T04:32:20.110Z,92.66
2017-07-21T04:33:01.012Z,92.76
2017-07-21T04:33:41.903Z,92.94
2017-07-21T04:34:22.794Z,93.04
2017-07-21T04:35:03.696Z,92.66
2017-07-21T04:35:44.591Z,92.66
2017-07-21T04:36:25.477Z,93.43
2017-07-21T04:37:06.374Z,93.04
2017-07-21T04:37:47.265Z,93.33
2017-07-21T04:38:28.161Z,93.14
2017-07-21T04:39:09.054Z,93.14
2017-07-21T04:39:49.948Z,92.94
2017-07-21T04:40:30.837Z,92.66
2017-07-21T04:41:11.727Z,92.94
2017-07-21T04:41:52.625Z,92.56
2017-07-21T04:42:33.516Z,92.94
2017-07-21T04:43:14.405Z,92.66
2017-07-21T04:43:55.298Z,93.04
2017-07-21T04:44:36.188Z,92.76
2017-07-21T04:45:17.092Z,92.66
2017-07-21T04:45:57.982Z,92.94
2017-07-21T04:46:38.879Z,92.66
2017-07-21T04:47:19.771Z,92.85
2017-07-21T04:48:00.656Z,92.66
2017-07-21T04:49:54.331Z,92.94
2017-07-21T04:50:35.233Z,93.14
2017-07-21T04:51:16.117Z,93.04
2017-07-21T04:51:57.018Z,92.76
2017-07-21T04:52:37.922Z,92.76
2017-07-21T04:53:18.870Z,92.66
2017-07-21T04:53:59.751Z,92.56
2017-07-21T04:54:40.648Z,92.56
2017-07-21T04:55:21.548Z,92.76
2017-07-21T04:56:02.477Z,92.76
2017-07-21T04:56:43.336Z,92.85
2017-07-21T04:57:24.209Z,92.76
2017-07-21T04:58:05.095Z,92.94
2017-07-21T04:58:45.985Z,92.85
2017-07-21T04:59:26.881Z,92.76
2017-07-21T05:00:07.776Z,92.85
2017-07-21T05:00:48.665Z,92.85
2017-07-21T05:01:29.556Z,92.56
2017-07-21T05:02:10.450Z,92.85
2017-07-21T05:02:51.361Z,92.85
2017-07-21T05:03:32.308Z,92.85
2017-07-21T05:04:13.256Z,92.85
2017-07-21T05:04:54.150Z,92.94
2017-07-21T05:05:35.043Z,93.04
2017-07-21T05:06:15.924Z,92.85
2017-07-21T05:06:56.836Z,92.76
2017-07-21T05:07:37.705Z,93.04
2017-07-21T05:08:18.597Z,92.56
2017-07-21T05:08:59.484Z,92.66
2017-07-21T05:09:40.375Z,93.04
2017-07-21T05:10:21.266Z,92.61
2017-07-21T05:11:02.149Z,92.37
2017-07-21T05:11:43.058Z,93
2017-07-21T05:12:23.939Z,92.85
2017-07-21T05:13:04.832Z,92.61
2017-07-21T05:13:45.735Z,93.19
2017-07-21T05:14:26.627Z,93
2017-07-21T05:15:08.017Z,93.24
2017-07-21T05:15:48.901Z,92.27
2017-07-21T05:16:29.781Z,92.76
2017-07-21T05:17:10.673Z,93.04
2017-07-21T05:17:51.617Z,92.94
2017-07-21T05:18:32.506Z,92.76
2017-07-21T05:19:13.397Z,92.85
2017-07-21T05:19:54.288Z,92.94
2017-07-21T05:20:35.178Z,92.47
2017-07-21T05:21:16.075Z,92.56
2017-07-21T05:21:56.977Z,92.85
2017-07-21T05:22:37.866Z,92.56
2017-07-21T05:23:18.766Z,92.85
2017-07-21T05:23:59.666Z,92.76
2017-07-21T05:24:40.564Z,92.85
2017-07-21T05:25:21.465Z,92.76
2017-07-21T05:26:02.349Z,92.56
2017-07-21T05:26:43.259Z,92.85
2017-07-21T05:27:24.201Z,92.56
2017-07-21T05:28:05.079Z,92.85
2017-07-21T05:28:46.151Z,92.66
2017-07-21T05:29:28.162Z,92.85
2017-07-21T05:30:09.052Z,92.18
2017-07-21T05:30:49.949Z,92.27
2017-07-21T05:31:30.831Z,92.37
2017-07-21T05:32:11.714Z,92.18
2017-07-21T05:32:52.599Z,92.76
2017-07-21T05:33:33.497Z,92.85
2017-07-21T05:34:14.390Z,92.85
2017-07-21T05:34:55.280Z,92.27
2017-07-21T05:35:36.176Z,92.18
2017-07-21T05:36:17.085Z,92.85
2017-07-21T05:36:57.980Z,92.27
2017-07-21T05:37:38.863Z,92.27
2017-07-21T05:38:19.755Z,92.27
2017-07-21T05:39:00.652Z,92.08
2017-07-21T05:39:41.543Z,92.27
2017-07-21T05:40:22.425Z,92.37
2017-07-21T05:41:03.320Z,92.27
2017-07-21T05:41:44.212Z,92.41
2017-07-21T05:42:25.140Z,92.32
2017-07-21T05:43:06.032Z,92.41
2017-07-21T05:43:46.918Z,92.61
2017-07-21T05:44:27.809Z,92.32
2017-07-21T05:45:08.702Z,92.51
2017-07-21T05:45:49.602Z,92.47
2017-07-21T05:46:30.484Z,92.61
2017-07-21T05:47:11.363Z,92.18
2017-07-21T05:47:52.275Z,92.08
2017-07-21T05:48:33.166Z,92.76
2017-07-21T05:49:14.051Z,92.85
2017-07-21T05:49:54.952Z,92.76
2017-07-21T05:50:35.842Z,93.14
2017-07-21T05:51:16.728Z,92.85
2017-07-21T05:51:57.625Z,93.14
2017-07-21T05:52:38.526Z,92.56
2017-07-21T05:53:19.420Z,92.76
2017-07-21T05:54:00.321Z,92.76
2017-07-21T05:54:41.218Z,92.76
2017-07-21T05:55:22.102Z,92.27
2017-07-21T05:56:02.996Z,92.61
2017-07-21T05:56:43.903Z,92.32
2017-07-21T05:57:24.797Z,92.41
2017-07-21T05:58:05.691Z,92.41
2017-07-21T05:58:46.719Z,92.41
2017-07-21T05:59:27.615Z,92.32
2017-07-21T06:00:08.534Z,92.51
2017-07-21T06:00:49.437Z,92.03
2017-07-21T06:01:30.316Z,92.08
2017-07-21T06:02:11.230Z,92.32
2017-07-21T06:02:52.124Z,92.37
2017-07-21T06:03:33.011Z,92.08
2017-07-21T06:04:13.911Z,92.85
2017-07-21T06:06:12.744Z,92.32
2017-07-21T06:06:53.646Z,92.03
2017-07-21T06:07:34.538Z,92.27
2017-07-21T06:08:15.429Z,92.41
2017-07-21T06:08:56.324Z,92.51
2017-07-21T06:09:37.223Z,92.03
2017-07-21T06:10:18.108Z,92.03
2017-07-21T06:10:59.011Z,91.93
2017-07-21T06:11:39.892Z,91.83
2017-07-21T06:12:20.772Z,92.13
2017-07-21T06:13:01.673Z,92.13
2017-07-21T06:13:42.591Z,92.03
2017-07-21T06:14:23.490Z,92.32
2017-07-21T06:15:04.375Z,92.13
2017-07-21T06:15:45.261Z,92.22
2017-07-21T06:16:26.159Z,91.93
2017-07-21T06:17:07.052Z,91.55
2017-07-21T06:17:47.940Z,91.74
2017-07-21T06:18:28.832Z,91.88
2017-07-21T06:19:09.728Z,91.88
2017-07-21T06:19:50.619Z,91.3
2017-07-21T06:20:31.517Z,91.6
2017-07-21T06:21:12.427Z,91.78
2017-07-21T06:21:53.320Z,91.02
2017-07-21T06:22:34.214Z,91.2
2017-07-21T06:23:15.106Z,91.2
2017-07-21T06:23:56.014Z,91.44
2017-07-21T06:24:36.908Z,90.96
2017-07-21T06:25:17.801Z,91.16
2017-07-21T06:25:58.712Z,90.38
2017-07-21T06:26:39.591Z,90.38
2017-07-21T06:27:20.473Z,90.62
2017-07-21T06:28:01.378Z,90.05
2017-07-21T06:28:42.263Z,90.05
2017-07-21T06:29:23.161Z,89.7
2017-07-21T06:30:04.061Z,88.73
2017-07-21T06:30:44.947Z,88.1
2017-07-21T06:31:25.839Z,87.33
2017-07-21T06:32:06.745Z,87.47
2017-07-21T06:32:47.643Z,87.71
2017-07-21T06:33:28.548Z,86.2
2017-07-21T06:34:09.429Z,85.39
2017-07-21T06:34:50.335Z,85.33
2017-07-21T06:35:31.234Z,85.29
2017-07-21T06:36:12.139Z,85.1
2017-07-21T06:36:53.049Z,85.58
2017-07-21T06:37:33.944Z,84.61
2017-07-21T06:38:14.845Z,85.19
2017-07-21T06:38:55.731Z,84.77
2017-07-21T06:39:36.636Z,85.39
2017-07-21T06:40:17.547Z,84.61
2017-07-21T06:40:58.450Z,84.8
2017-07-21T06:41:39.362Z,85.33
2017-07-21T06:42:20.267Z,83.28
2017-07-21T06:43:01.161Z,81.83
2017-07-21T06:43:42.054Z,81
2017-07-21T06:44:22.954Z,80.8
2017-07-21T06:45:03.850Z,80.96
2017-07-21T06:45:44.751Z,80.17
2017-07-21T06:46:25.650Z,79.3
2017-07-21T06:47:06.549Z,77.24
2017-07-21T06:47:47.461Z,77.94
2017-07-21T06:48:28.341Z,77.26
2017-07-21T06:49:09.248Z,78.23
2017-07-21T06:49:50.123Z,79.64
2017-07-21T06:50:31.021Z,78.91
2017-07-21T06:51:11.914Z,77.2
2017-07-21T06:51:52.820Z,78.03
2017-07-21T06:52:33.716Z,77.11
2017-07-21T06:53:14.619Z,77.65
2017-07-21T06:53:55.511Z,77.55
2017-07-21T06:54:36.417Z,76.91
2017-07-21T06:55:17.332Z,76.07
2017-07-21T06:55:58.216Z,76.07
2017-07-21T06:56:39.119Z,74.62
2017-07-21T06:57:20.029Z,73.94
2017-07-21T06:58:00.928Z,77.22
2017-07-21T06:58:41.829Z,78.58
2017-07-21T06:59:22.752Z,78.38
2017-07-21T07:00:03.648Z,78.42
2017-07-21T07:00:44.531Z,76.97
2017-07-21T07:01:25.466Z,75.62
2017-07-21T07:02:06.352Z,74.65
2017-07-21T07:02:47.278Z,73.88
2017-07-21T07:03:28.174Z,73.68
2017-07-21T07:04:09.065Z,73.2
2017-07-21T07:04:49.973Z,76.64
2017-07-21T07:05:30.884Z,79.76
2017-07-21T07:06:11.785Z,80.73
2017-07-21T07:06:52.750Z,81.02
2017-07-21T07:07:33.619Z,80.82
2017-07-21T07:08:14.519Z,81.56
2017-07-21T07:08:55.432Z,83.06
2017-07-21T07:09:36.332Z,83.64
2017-07-21T07:10:17.247Z,83.69
2017-07-21T07:10:58.136Z,83.4
2017-07-21T07:11:39.044Z,81.98
2017-07-21T07:12:19.945Z,81.29
2017-07-21T07:13:00.861Z,79.35
2017-07-21T07:13:41.766Z,78.19
2017-07-21T07:14:22.676Z,78.38
2017-07-21T07:15:03.579Z,77.94
2017-07-21T07:15:44.489Z,76.23
2017-07-21T07:16:25.385Z,75.65
2017-07-21T07:17:06.296Z,76.58
2017-07-21T07:17:47.210Z,77.96
2017-07-21T07:18:28.106Z,77.06
2017-07-21T07:19:09.004Z,77.06
2017-07-21T07:19:49.904Z,75.36
2017-07-21T07:20:30.828Z,75.42
2017-07-21T07:21:11.741Z,75.36
2017-07-21T07:21:52.636Z,75.81
2017-07-21T07:22:33.541Z,75.16
2017-07-21T07:23:14.453Z,74
2017-07-21T07:23:55.356Z,78.15
2017-07-21T07:24:36.261Z,80.11
2017-07-21T07:25:17.167Z,80.69
2017-07-21T07:25:58.074Z,80.15
2017-07-21T07:26:38.966Z,80.79
2017-07-21T07:27:19.891Z,80.82
2017-07-21T07:28:00.777Z,79.7
2017-07-21T07:28:41.700Z,78.81
2017-07-21T07:29:22.597Z,77.26
2017-07-21T07:30:03.490Z,76.97
2017-07-21T07:30:44.395Z,75.65
2017-07-21T07:31:25.304Z,74.62
2017-07-21T07:32:06.213Z,74.19
2017-07-21T07:32:47.122Z,73.9
2017-07-21T07:33:28.067Z,75.94
2017-07-21T07:34:57.252Z,74.62
2017-07-21T07:35:38.173Z,75.16
2017-07-21T07:36:19.080Z,73.94
2017-07-21T07:37:52.467Z,72.75
2017-07-21T07:38:33.362Z,73.71
2017-07-21T07:39:14.267Z,76
2017-07-21T07:39:55.174Z,77.12
2017-07-21T07:40:36.074Z,78.29
2017-07-21T07:41:16.974Z,77.65
2017-07-21T07:41:57.875Z,75.4
2017-07-21T07:42:38.788Z,73.68
2017-07-21T07:43:19.688Z,75.59
2017-07-21T07:44:00.587Z,75.84
2017-07-21T07:44:41.493Z,75.16
2017-07-21T07:45:22.411Z,75.13
2017-07-21T07:46:03.323Z,75.81
2017-07-21T07:46:44.218Z,76.29
2017-07-21T07:47:25.124Z,74.87
2017-07-21T07:48:06.024Z,75.07
2017-07-21T07:48:46.923Z,75.49
2017-07-21T07:49:27.819Z,74.04
2017-07-21T07:50:08.714Z,73.74
2017-07-21T07:50:49.630Z,74.13
2017-07-21T07:51:30.545Z,73.36
2017-07-21T07:52:11.433Z,73.71
2017-07-21T07:52:52.333Z,75.13
2017-07-21T07:53:33.237Z,75.9
2017-07-21T07:54:14.147Z,76.68
2017-07-21T07:54:55.056Z,76.58
2017-07-21T07:55:35.964Z,73.68
2017-07-21T07:56:16.867Z,73.2
2017-07-21T07:56:57.788Z,72.23
2017-07-21T07:57:38.691Z,72.27
2017-07-21T07:58:19.607Z,73.55
2017-07-21T07:59:00.521Z,74.1
2017-07-21T07:59:41.447Z,74.68
2017-07-21T08:00:22.356Z,75.51
2017-07-21T08:01:03.276Z,76.1
2017-07-21T08:01:44.170Z,76.87
2017-07-21T08:02:25.079Z,74.87
2017-07-21T08:03:05.978Z,76.48
2017-07-21T08:03:46.879Z,75.71
2017-07-21T08:04:27.791Z,77.42
2017-07-21T08:05:08.690Z,79.76
2017-07-21T08:05:49.596Z,81.93
2017-07-21T08:06:30.505Z,79.25
2017-07-21T08:07:11.422Z,78.48
2017-07-21T08:07:52.321Z,77.9
2017-07-21T08:08:33.232Z,76.62
2017-07-21T08:09:14.127Z,73.68
2017-07-21T08:09:55.030Z,74.91
2017-07-21T08:10:35.952Z,73.74
2017-07-21T08:11:16.861Z,72.71
2017-07-21T08:11:57.754Z,72.36
2017-07-21T08:12:38.662Z,72.71
2017-07-21T08:13:19.572Z,74.49
2017-07-21T08:14:00.479Z,77.12
2017-07-21T08:14:41.388Z,79.8
2017-07-21T08:15:22.297Z,79.12
2017-07-21T08:16:03.206Z,78.03
2017-07-21T08:16:44.115Z,77.06
2017-07-21T08:17:25.026Z,76.32
2017-07-21T08:18:05.955Z,77.06
2017-07-21T08:18:46.860Z,78.58
2017-07-21T08:19:27.760Z,77.16
2017-07-21T08:20:08.669Z,76.68
2017-07-21T08:20:49.572Z,76.58
2017-07-21T08:21:30.495Z,77.61
2017-07-21T08:22:11.395Z,77.28
2017-07-21T08:22:52.305Z,78.19
2017-07-21T08:23:33.217Z,77.9
2017-07-21T08:24:14.117Z,78.03
2017-07-21T08:24:55.030Z,75.26
2017-07-21T08:25:35.943Z,75.07
2017-07-21T08:26:16.855Z,73.1
2017-07-21T08:26:57.815Z,72.71
2017-07-21T08:27:38.741Z,73.26
2017-07-21T08:28:19.656Z,72.77
2017-07-21T08:29:00.615Z,73.07
2017-07-21T08:29:41.519Z,73.36
2017-07-21T08:30:22.417Z,73.74
2017-07-21T08:31:03.323Z,73.16
2017-07-21T08:31:44.224Z,73.55
2017-07-21T08:32:25.160Z,76.45
2017-07-21T08:33:06.069Z,79.41
2017-07-21T08:33:46.979Z,79.32
2017-07-21T08:34:27.887Z,77.22
2017-07-21T08:35:08.780Z,76.74
2017-07-21T08:35:49.695Z,76.19
2017-07-21T08:36:30.601Z,76.35
2017-07-21T08:37:11.502Z,75.45
2017-07-21T08:37:52.405Z,74.77
2017-07-21T08:38:33.307Z,73.74
2017-07-21T08:39:14.221Z,74
2017-07-21T08:39:55.137Z,74.84
2017-07-21T08:40:36.052Z,76.06
2017-07-21T08:41:16.973Z,75.51
2017-07-21T08:41:57.875Z,74.58
2017-07-21T08:42:38.783Z,76.45
2017-07-21T08:43:19.688Z,77.92
2017-07-21T08:44:00.600Z,78.15
2017-07-21T08:44:41.505Z,75.23
2017-07-21T08:45:22.414Z,74.58
2017-07-21T08:46:03.315Z,73.16
2017-07-21T08:46:44.229Z,75.13
2017-07-21T08:47:25.144Z,75.81
2017-07-21T08:48:06.055Z,75.61
2017-07-21T08:48:46.961Z,73.46
2017-07-21T08:49:27.867Z,75.03
2017-07-21T08:50:08.779Z,75.61
2017-07-21T08:50:49.680Z,77.57
2017-07-21T08:51:30.590Z,76.25
2017-07-21T08:52:11.503Z,76
2017-07-21T08:52:52.416Z,76.25
2017-07-21T08:53:33.327Z,78.89
2017-07-21T08:54:14.232Z,78.59
2017-07-21T08:54:55.134Z,76.25